»·PEaware :: N567DD KAVX-KSAN

N567DD :: KAVX-KSAN

FLIGHT INFORMATION

Flight Status: Arrived
Operator: Privately registered:
United States
More flights under this callsign
Pilot: Jordan V. (27588)
Aircraft: CESSNA 172 SKYHAWK
(C172)
More flights by this aircraft type
Origin: KAVX Catalina
United States
Destination: KSAN San Diego Intl-Lindbergh
United States
More flights between these airports :: More routes between these airports
Route: CSTP56
File this flight plan on PilotEdge
Remarks: I-8 Rating
Altitude:
(Current/Filed)
5,000ft
Speed:
(Current/Filed)
110kts
Departed: 08-Feb-20 01:19 PM
Arrived: 08-Feb-20 02:38 PM
Distance/Time
Traveled:
74nm/1:18
Distance/Time
To Go:
Arrived

Flight Plot

Page will automatically refresh every two minutes.

Flight plan parsing failed; only flown route is shown


Map Options




Map Legend


Flown Route
Filed Route
Departure Airport
Arrival Airport
Navaid (VOR, NDB)
Fix

Horizontal Profiles

Position Reports

Time Latitude Longitude Heading Altitude Ground
Speed
08-Feb-20 12:46 33.403815 -118.415354 153 1546ft 0kts
08-Feb-20 12:47 33.403815 -118.415354 153 1546ft 0kts
08-Feb-20 12:48 33.403815 -118.415354 153 1546ft 0kts
08-Feb-20 12:49 33.403815 -118.415354 153 1546ft 0kts
08-Feb-20 12:50 33.403815 -118.415354 153 1546ft 0kts
08-Feb-20 12:51 33.403815 -118.415354 153 1546ft 0kts
08-Feb-20 12:52 33.403815 -118.415354 153 1546ft 0kts
08-Feb-20 12:53 33.403815 -118.415354 153 1546ft 0kts
08-Feb-20 12:54 33.403815 -118.415354 153 1546ft 0kts
08-Feb-20 12:55 33.403815 -118.415354 153 1546ft 0kts
08-Feb-20 12:56 33.403815 -118.415354 153 1546ft 0kts
08-Feb-20 12:57 33.403815 -118.415354 153 1546ft 0kts
08-Feb-20 12:58 33.403815 -118.415354 153 1546ft 0kts
08-Feb-20 12:59 33.403815 -118.415354 153 1546ft 0kts
08-Feb-20 13:00 33.403815 -118.415354 153 1546ft 0kts
08-Feb-20 13:01 33.403815 -118.415354 153 1546ft 0kts
08-Feb-20 13:02 33.403815 -118.415354 153 1546ft 0kts
08-Feb-20 13:03 33.403815 -118.415354 153 1546ft 0kts
08-Feb-20 13:04 33.403815 -118.415354 153 1546ft 0kts
08-Feb-20 13:05 33.403815 -118.415354 153 1546ft 0kts
08-Feb-20 13:06 33.403815 -118.415354 153 1546ft 0kts
08-Feb-20 13:07 33.403815 -118.415354 153 1546ft 0kts
08-Feb-20 13:08 33.403815 -118.415354 153 1546ft 0kts
08-Feb-20 13:09 33.403815 -118.415354 153 1546ft 0kts
08-Feb-20 13:10 33.403815 -118.415354 153 1546ft 0kts
08-Feb-20 13:11 33.403815 -118.415354 153 1546ft 0kts
08-Feb-20 13:12 33.403815 -118.415354 153 1546ft 0kts
08-Feb-20 13:13 33.403815 -118.415354 153 1546ft 0kts
08-Feb-20 13:14 33.403815 -118.415354 153 1546ft 0kts
08-Feb-20 13:15 33.403815 -118.415354 153 1546ft 0kts
08-Feb-20 13:16 33.403770 -118.415057 35 1544ft 14kts
08-Feb-20 13:17 33.402835 -118.418718 236 1557ft 31kts
08-Feb-20 13:18 33.409658 -118.408983 48 1807ft 79kts
08-Feb-20 13:19 33.412383 -118.416317 189 2623ft 70kts
08-Feb-20 13:20 33.393376 -118.418150 192 3420ft 73kts
08-Feb-20 13:21 33.374772 -118.408702 104 4063ft 105kts
08-Feb-20 13:22 33.369786 -118.375898 102 4917ft 95kts
08-Feb-20 13:23 33.364672 -118.338850 101 4994ft 125kts
08-Feb-20 13:24 33.359154 -118.297294 100 4988ft 126kts
08-Feb-20 13:25 33.353665 -118.255607 100 4987ft 126kts
08-Feb-20 13:26 33.348136 -118.214140 100 4985ft 126kts
08-Feb-20 13:27 33.342615 -118.172467 99 4984ft 126kts
08-Feb-20 13:28 33.337118 -118.130920 99 4982ft 126kts
08-Feb-20 13:29 33.331652 -118.089671 99 5039ft 122kts
08-Feb-20 13:30 33.326215 -118.048748 99 5045ft 125kts
08-Feb-20 13:31 33.320689 -118.007268 99 5044ft 126kts
08-Feb-20 13:32 33.315131 -117.965669 99 5042ft 127kts
08-Feb-20 13:33 33.309521 -117.923785 98 5040ft 127kts
08-Feb-20 13:34 33.303898 -117.881918 98 5038ft 127kts
08-Feb-20 13:35 33.298236 -117.839865 98 5036ft 128kts
08-Feb-20 13:36 33.292554 -117.797723 98 5036ft 128kts
08-Feb-20 13:37 33.286847 -117.755549 98 5037ft 128kts
08-Feb-20 13:38 33.281120 -117.713350 98 5037ft 128kts
08-Feb-20 13:39 33.275270 -117.670373 98 4955ft 131kts
08-Feb-20 13:40 33.269429 -117.627566 98 4955ft 129kts
08-Feb-20 13:41 33.263655 -117.585312 99 4954ft 129kts
08-Feb-20 13:42 33.257859 -117.542987 99 4951ft 129kts
08-Feb-20 13:44 33.252041 -117.500668 100 4948ft 128kts
08-Feb-20 13:45 33.246235 -117.458570 100 4946ft 128kts
08-Feb-20 13:46 33.237452 -117.418405 149 4944ft 121kts
08-Feb-20 13:47 33.206864 -117.404053 165 4944ft 118kts
08-Feb-20 13:48 33.175823 -117.390735 166 4944ft 118kts
08-Feb-20 13:49 33.144554 -117.377381 166 4945ft 119kts
08-Feb-20 13:50 33.113207 -117.364179 166 4947ft 120kts
08-Feb-20 13:51 33.081538 -117.350868 165 4946ft 120kts
08-Feb-20 13:52 33.050032 -117.337637 166 4944ft 119kts
08-Feb-20 13:53 33.018758 -117.324513 166 4944ft 119kts
08-Feb-20 13:54 32.987416 -117.311370 165 4944ft 119kts
08-Feb-20 13:55 32.956261 -117.298315 165 4944ft 119kts
08-Feb-20 13:56 32.924969 -117.285209 165 4945ft 119kts
08-Feb-20 13:57 32.893616 -117.272090 165 4946ft 119kts
08-Feb-20 13:58 32.862193 -117.258951 165 4947ft 120kts
08-Feb-20 13:59 32.845965 -117.226961 102 4947ft 125kts
08-Feb-20 14:00 32.839140 -117.186400 102 4946ft 125kts
08-Feb-20 14:00 32.830483 -117.153758 112 4945ft 124kts
08-Feb-20 14:02 32.816487 -117.108907 111 4944ft 123kts
08-Feb-20 14:03 32.804374 -117.070655 111 4944ft 123kts
08-Feb-20 14:04 32.791970 -117.032631 111 4945ft 123kts
08-Feb-20 14:04 32.781356 -117.001032 111 4945ft 123kts
08-Feb-20 14:06 32.766184 -116.956856 111 4946ft 123kts
08-Feb-20 14:07 32.753050 -116.919150 111 4945ft 123kts
08-Feb-20 14:07 32.742049 -116.887702 111 4945ft 123kts
08-Feb-20 14:08 32.728876 -116.849875 111 4945ft 124kts
08-Feb-20 14:09 32.715755 -116.811789 111 4945ft 124kts
08-Feb-20 14:10 32.702773 -116.773660 111 4945ft 125kts
08-Feb-20 14:11 32.689821 -116.735131 111 4945ft 125kts
08-Feb-20 14:12 32.677013 -116.696519 111 4945ft 126kts
08-Feb-20 14:13 32.664311 -116.657678 111 4945ft 126kts
08-Feb-20 14:14 32.651781 -116.618655 111 4934ft 127kts
08-Feb-20 14:15 32.639680 -116.579004 111 4927ft 128kts
08-Feb-20 14:16 32.620847 -116.549013 197 4930ft 113kts
08-Feb-20 14:17 32.614184 -116.579589 271 4928ft 104kts
08-Feb-20 14:18 32.615107 -116.614076 271 4927ft 104kts
08-Feb-20 14:19 32.616035 -116.648537 271 4927ft 104kts
08-Feb-20 14:20 32.616940 -116.683124 271 4927ft 104kts
08-Feb-20 14:21 32.617808 -116.717617 271 4928ft 106kts
08-Feb-20 14:22 32.618662 -116.752966 271 4927ft 107kts
08-Feb-20 14:23 32.619484 -116.788643 271 4927ft 108kts
08-Feb-20 14:24 32.620268 -116.824308 271 4927ft 108kts
08-Feb-20 14:25 32.628969 -116.857877 291 4647ft 106kts
08-Feb-20 14:26 32.640322 -116.889787 291 3950ft 105kts
08-Feb-20 14:27 32.652032 -116.918979 301 3921ft 95kts
08-Feb-20 14:28 32.664518 -116.942622 301 3980ft 85kts
08-Feb-20 14:29 32.678553 -116.969709 302 3972ft 99kts
08-Feb-20 14:30 32.687911 -117.001158 287 3405ft 104kts
08-Feb-20 14:31 32.695722 -117.033113 287 2836ft 92kts
08-Feb-20 14:32 32.702513 -117.061074 287 2387ft 90kts
08-Feb-20 14:33 32.709397 -117.089655 287 1951ft 88kts
08-Feb-20 14:34 32.716266 -117.118214 288 1469ft 86kts
08-Feb-20 14:35 32.722858 -117.145581 287 893ft 90kts
08-Feb-20 14:36 32.728739 -117.169713 286 308ft 70kts
08-Feb-20 14:37 32.732892 -117.186854 287 15ft 24kts
08-Feb-20 14:38 32.734146 -117.187332 107 16ft 18kts
08-Feb-20 14:39 32.732698 -117.181212 90 16ft 18kts
08-Feb-20 14:40 32.733140 -117.180612 15 18ft 0kts
08-Feb-20 14:41 32.733140 -117.180612 15 18ft 0kts
08-Feb-20 14:42 32.733140 -117.180612 15 18ft 0kts
08-Feb-20 14:43 32.733140 -117.180612 15 18ft 0kts
08-Feb-20 14:44 32.733140 -117.180612 15 18ft 0kts
08-Feb-20 14:45 32.733140 -117.180612 15 18ft 0kts
08-Feb-20 14:46 32.733140 -117.180612 15 18ft 0kts
08-Feb-20 14:47 32.733140 -117.180612 15 18ft 0kts
08-Feb-20 14:48 32.733140 -117.180612 15 18ft 0kts
08-Feb-20 14:49 32.733140 -117.180612 15 18ft 0kts
08-Feb-20 14:50 32.733140 -117.180612 15 18ft 0kts
08-Feb-20 14:51 32.733140 -117.180612 15 18ft 0kts

Navigation Log

Ident Type
Flight plan parsing failed, navigation log unavailable